Strona główna
METAR-TAF:

METAR-TAF

Lotnisko :

Port lotniczy Lima-Jorge Chávez

Lima, Peru

Szerokość geograficzna: 12-00S, Długość geograficzna: 077-07W, wysokość: 12 m

Aktualna obserwacja pogody

Raport powstał 23 minut temu, godzina 10:00 UTC
Wiatr 4 kt od południe
Temperatura 21°C
Wilgotność 94%
Ciśnienie 1010 hPa
Widzialność 10 km lub więcej
Mało chmury na wysokości 500 ft
Przerywane chmury na wysokości 17000 ft

METAR: SPJC 231000Z 17004KT 9999 FEW005 BKN170 21/20 Q1010 NOSIG RMK PP000

czas: 05:23 (10:23 UTC)

Prognoza

Raport powstał 5 godziny i 23 minut temu, godzina 05:00 UTC
Prognoza ważna od 23 godzina 06 UTC do 24 godzina 06 UTC
Wiatr 8 kt od południowo-południowy wschód
Widzialność 10 km lub więcej
Rozproszone chmury na wysokości 5000 ft
Przerywane chmury na wysokości 13000 ft
Od 23 godzina 1600 UTC
Wiatr 12 kt od południe
Widzialność 10 km lub więcej
Brak chmur poniżej 1500 m i brak chmur cumulonimbus

TAF: SPJC 230500Z 2306/2406 16008KT 9999 SCT050 BKN130 TX28/2320Z TN21/2311Z FM231600 18012KT CAVOK

Obserwacja i prognoza pogody dla ponad 4000 lotnisk (raport METAR i TAF).

Dostępne stacje oznaczono żółtymi i czerwonymi punktami na mapie.

Najedź kursorem aby zobaczyć nazwę stacji.

Kliknij aby zobaczyć obserwacje i prognozy pogody.

Aby zmienić mapę: kliknij na zielony przycisk z czarnym krzyżykiem, aby powiększyć; na zielony przycisk z myślnikiem, aby pomniejszyć; na zielone strzałki, aby przejść do map sąsiednich.


METAR-TAF: